LFCR/RDZ METAR and TAF weather

Enter ICAO airport designator
Station Type Date Time Source
LFCR METAR 2021/05/17 22:30 UTC NOAA

LFCR 172230Z AUTO 27007KT CAVOK 08/06 Q1021 BECMG BKN013


Station Type Date Time Source
LFCR Decoded METAR 2021/05/17 22:30 UTC NOAA

Rodez, France (LFCR) 44-24N 002-29E 580M
May 17, 2021 - 06:30 PM EDT / 2021.05.17 2230 UTC
Wind: from the W (270 degrees) at 8 MPH (7 KT):0
Visibility: greater than 7 mile(s):0
Temperature: 46 F (8 C)
Dew Point: 42 F (6 C)
Relative Humidity: 87%
Pressure (altimeter): 30.15 in. Hg (1021 hPa)
ob: LFCR 172230Z AUTO 27007KT CAVOK 08/06 Q1021 BECMG BKN013
cycle: 22

Station Type Date Time Source
LFCR TAF 2021/05/17 18:21 UTC NOAA

TAF LFCR 171700Z 1718/1818 27013KT 9999 SCT033TCU
BECMG 1722/1724 VRB03KT BKN013
BECMG 1805/1807 SCT020
TEMPO 1812/1818 36005KT SHRA SCT030 BKN035

Example: see airport list